Time;durP1;ratioP1;P1;durP2;ratioP2;P2;SDS_P1;SDS_P2;PMS_P1;PMS_P2;Temp;Humidity;BMP_temperature;BMP_pressure;BME280_temperature;BME280_humidity;BME280_pressure;Samples;Min_cycle;Max_cycle;Signal;HPM_P1;HPM_P2
2024/02/27 00:01:12;;;;;;;70.47;13.52;;;;;;;9.22;100.00;97078.97;5018490;28;20124;-59
2024/02/27 00:03:38;;;;;;;126.50;18.17;;;;;;;8.58;100.00;97077.09;5016477;28;20093;-60
2024/02/27 00:06:03;;;;;;;116.32;19.95;;;;;;;8.28;100.00;97079.06;5017378;28;20086;-61
2024/02/27 00:08:28;;;;;;;91.05;17.15;;;;;;;8.17;100.00;97084.34;5014422;28;20079;-61
2024/02/27 00:10:54;;;;;;;102.75;16.98;;;;;;;8.25;100.00;97086.84;5014642;28;20037;-60
2024/02/27 00:13:19;;;;;;;96.22;14.73;;;;;;;8.47;100.00;97090.13;5014929;28;20389;-60
2024/02/27 00:15:45;;;;;;;121.75;19.15;;;;;;;8.16;100.00;97082.59;5013105;28;20132;-60
2024/02/27 00:18:13;;;;;;;85.78;16.50;;;;;;;8.15;100.00;97083.47;5015844;28;20067;-61
2024/02/27 00:20:39;;;;;;;102.82;17.27;;;;;;;8.08;100.00;97085.25;5013105;28;20040;-59
2024/02/27 00:23:04;;;;;;;115.93;17.92;;;;;;;8.13;100.00;97093.84;5013971;28;20029;-59
2024/02/27 00:25:29;;;;;;;98.00;16.15;;;;;;;8.08;100.00;97091.31;5013178;28;20435;-59
2024/02/27 00:27:55;;;;;;;115.88;18.08;;;;;;;7.98;100.00;97094.81;5014407;28;20108;-58
2024/02/27 00:30:20;;;;;;;99.22;16.95;;;;;;;7.81;100.00;97087.19;5012736;28;20021;-59
2024/02/27 00:32:45;;;;;;;110.20;18.77;;;;;;;7.95;100.00;97098.28;5013832;28;20037;-59
2024/02/27 00:35:11;;;;;;;98.13;19.10;;;;;;;7.78;100.00;97106.19;5013423;28;20060;-61
2024/02/27 00:37:36;;;;;;;133.10;19.42;;;;;;;7.92;100.00;97111.28;5013891;28;20489;-63
2024/02/27 00:40:04;;;;;;;110.88;26.92;;;;;;;8.05;100.00;97121.53;5014317;28;20228;-60
2024/02/27 00:42:29;;;;;;;101.53;19.40;;;;;;;7.76;100.00;97110.50;5013407;28;20922;-60
2024/02/27 00:44:54;;;;;;;105.35;17.17;;;;;;;7.89;100.00;97113.00;5014054;28;20260;-60
2024/02/27 00:47:20;;;;;;;92.50;17.52;;;;;;;7.76;100.00;97117.41;5014553;28;20030;-60
2024/02/27 00:49:45;;;;;;;169.73;23.30;;;;;;;7.90;100.00;97115.59;5013819;28;20060;-60
2024/02/27 00:52:11;;;;;;;88.10;17.20;;;;;;;7.59;100.00;97102.84;5014296;28;20321;-60
2024/02/27 00:54:36;;;;;;;88.90;28.73;;;;;;;7.75;100.00;97107.91;5013940;28;20206;-59
2024/02/27 00:57:01;;;;;;;95.57;17.08;;;;;;;7.88;100.00;97121.66;5014766;28;20455;-59
2024/02/27 00:59:27;;;;;;;93.65;16.95;;;;;;;7.94;100.00;97130.22;5014070;28;20443;-62
2024/02/27 01:01:52;;;;;;;113.22;19.10;;;;;;;7.77;100.00;97134.66;5011796;28;20048;-60
2024/02/27 01:04:18;;;;;;;120.60;18.38;;;;;;;7.92;100.00;97137.16;5015116;28;20072;-61
2024/02/27 01:06:44;;;;;;;89.45;17.27;;;;;;;7.94;100.00;97138.00;5013198;28;20034;-60
2024/02/27 01:09:09;;;;;;;91.40;19.02;;;;;;;8.29;100.00;97138.63;5015115;28;20027;-59
2024/02/27 01:11:34;;;;;;;126.60;17.40;;;;;;;8.48;100.00;97141.06;5012046;28;20033;-60
2024/02/27 01:14:00;;;;;;;81.85;14.80;;;;;;;8.38;100.00;97142.88;5014292;28;20040;-59
2024/02/27 01:16:25;;;;;;;94.40;16.48;;;;;;;7.83;100.00;97132.03;5012674;28;20044;-61
2024/02/27 01:18:50;;;;;;;110.20;19.83;;;;;;;7.92;100.00;97125.94;5012197;28;20215;-61
2024/02/27 01:21:17;;;;;;;83.97;16.60;;;;;;;7.99;100.00;97127.63;5012364;28;20256;-60
2024/02/27 01:23:42;;;;;;;109.38;16.83;;;;;;;8.30;100.00;97131.69;5013634;28;20061;-61
2024/02/27 01:26:07;;;;;;;107.35;17.90;;;;;;;8.39;100.00;97133.38;5013418;28;20554;-59
2024/02/27 01:28:33;;;;;;;87.00;17.10;;;;;;;8.26;100.00;97130.88;5014155;28;20115;-60
2024/02/27 01:30:58;;;;;;;112.93;18.80;;;;;;;8.12;100.00;97141.34;5012399;28;20037;-60
2024/02/27 01:33:23;;;;;;;94.82;17.13;;;;;;;8.32;100.00;97138.59;5013631;28;20020;-62
2024/02/27 01:35:48;;;;;;;96.18;16.70;;;;;;;8.14;100.00;97137.03;5012680;28;20075;-60
2024/02/27 01:38:14;;;;;;;77.90;15.48;;;;;;;8.24;100.00;97131.75;5014571;28;20455;-61
2024/02/27 01:40:39;;;;;;;126.70;22.58;;;;;;;8.20;100.00;97143.84;5012516;28;20049;-60
2024/02/27 01:43:19;;;;;;;74.18;16.23;;;;;;;8.07;100.00;97145.69;5014366;28;20029;-63
2024/02/27 01:45:45;;;;;;;154.13;22.38;;;;;;;8.14;100.00;97147.38;5012861;28;20041;-61
2024/02/27 01:48:10;;;;;;;81.60;16.55;;;;;;;8.01;100.00;97145.72;5014294;28;20080;-60
2024/02/27 01:50:36;;;;;;;80.50;16.90;;;;;;;7.99;100.00;97145.75;5011995;28;20049;-62
2024/02/27 01:53:01;;;;;;;98.68;16.67;;;;;;;8.06;100.00;97143.97;5012910;28;20078;-60
2024/02/27 01:55:27;;;;;;;101.88;17.88;;;;;;;8.25;100.00;97144.72;5013931;28;20053;-61
2024/02/27 01:57:53;;;;;;;134.27;19.25;;;;;;;8.23;100.00;97143.00;5012741;28;20501;-64
2024/02/27 02:00:18;;;;;;;120.70;20.02;;;;;;;8.21;100.00;97143.00;5011404;28;20025;-61
2024/02/27 02:02:44;;;;;;;119.70;20.08;;;;;;;8.24;100.00;97137.78;5010377;28;20030;-61
2024/02/27 02:05:09;;;;;;;77.63;16.85;;;;;;;8.20;100.00;97146.44;5013886;28;20025;-61
2024/02/27 02:07:35;;;;;;;100.75;17.20;;;;;;;8.14;100.00;97144.78;5012455;28;20018;-61
2024/02/27 02:10:01;;;;;;;77.95;18.73;;;;;;;8.19;100.00;97152.50;5012430;28;20187;-61
2024/02/27 02:12:26;;;;;;;106.65;16.73;;;;;;;8.01;100.00;97151.75;5010605;28;20048;-62
2024/02/27 02:14:52;;;;;;;136.48;18.85;;;;;;;7.87;100.00;97154.44;5011919;28;20042;-59
2024/02/27 02:17:17;;;;;;;84.18;18.33;;;;;;;7.98;100.00;97156.97;5013600;28;20485;-59
2024/02/27 02:19:43;;;;;;;150.32;20.63;;;;;;;7.69;100.00;97161.44;5011557;28;20068;-59
2024/02/27 02:22:08;;;;;;;87.88;20.55;;;;;;;7.79;100.00;97167.44;5012455;28;20221;-61
2024/02/27 02:24:35;;;;;;;95.78;48.30;;;;;;;7.56;100.00;97172.72;5013732;28;20058;-63
2024/02/27 02:27:02;;;;;;;125.80;56.55;;;;;;;7.62;100.00;97169.25;5013376;28;20029;-59
2024/02/27 02:29:28;;;;;;;196.07;136.45;;;;;;;7.80;100.00;97163.13;5012774;28;20029;-60
2024/02/27 02:31:54;;;;;;;196.10;84.68;;;;;;;7.59;100.00;97157.19;5010540;28;20037;-59
2024/02/27 02:34:19;;;;;;;164.23;99.95;;;;;;;7.43;100.00;97149.47;5012846;28;20033;-62
2024/02/27 02:36:45;;;;;;;130.95;62.33;;;;;;;7.31;100.00;97144.34;5011893;28;20033;-61
2024/02/27 02:39:10;;;;;;;165.73;134.15;;;;;;;7.30;100.00;97127.13;5013620;28;20510;-60
2024/02/27 02:41:35;;;;;;;180.20;123.00;;;;;;;7.33;100.00;97121.06;5011358;28;20039;-59
2024/02/27 02:44:01;;;;;;;170.65;113.80;;;;;;;7.31;100.00;97122.81;5012437;28;20436;-60
2024/02/27 02:46:26;;;;;;;132.95;75.05;;;;;;;7.11;100.00;97114.28;5012984;28;20044;-62
2024/02/27 02:48:53;;;;;;;332.10;295.70;;;;;;;7.09;100.00;97116.00;5012443;28;20076;-60
2024/02/27 02:51:19;;;;;;;130.00;77.35;;;;;;;6.96;100.00;97112.59;5010522;28;20516;-59
2024/02/27 02:53:44;;;;;;;182.85;124.32;;;;;;;7.06;100.00;97108.25;5012334;28;20167;-60
2024/02/27 02:56:09;;;;;;;226.07;200.07;;;;;;;7.04;100.00;97115.16;5011272;28;20127;-59
2024/02/27 02:58:34;;;;;;;114.20;63.95;;;;;;;7.13;100.00;97122.03;5011902;28;20044;-63
2024/02/27 03:01:00;;;;;;;133.77;62.35;;;;;;;6.98;100.00;97103.09;5010346;28;20069;-60
2024/02/27 03:03:25;;;;;;;268.15;224.50;;;;;;;7.13;100.00;97101.34;5011368;28;20021;-61
2024/02/27 03:05:50;;;;;;;396.42;357.40;;;;;;;7.08;100.00;97114.28;5011270;28;20049;-59
2024/02/27 03:08:16;;;;;;;145.93;112.50;;;;;;;7.06;100.00;97113.44;5012221;28;20017;-60
2024/02/27 03:10:41;;;;;;;227.65;166.73;;;;;;;6.98;100.00;97110.00;5008476;28;20041;-62
2024/02/27 03:13:07;;;;;;;134.98;105.75;;;;;;;7.14;100.00;97110.81;5010375;28;20073;-59
2024/02/27 03:15:33;;;;;;;164.70;111.13;;;;;;;7.01;100.00;97113.44;5011594;28;20041;-61
2024/02/27 03:17:58;;;;;;;171.45;121.07;;;;;;;6.98;100.00;97116.03;5010992;28;20092;-61
2024/02/27 03:20:24;;;;;;;201.50;169.15;;;;;;;6.96;100.00;97111.72;5011792;28;20021;-61
2024/02/27 03:22:49;;;;;;;242.98;162.95;;;;;;;6.90;100.00;97120.34;5011091;28;20029;-61
2024/02/27 03:25:14;;;;;;;119.70;57.08;;;;;;;6.77;100.00;97122.13;5011831;28;20068;-62
2024/02/27 03:27:40;;;;;;;112.30;67.80;;;;;;;6.95;100.00;97117.78;5010728;28;20021;-59
2024/02/27 03:30:08;;;;;;;141.60;92.18;;;;;;;7.02;100.00;97116.91;5011479;28;20033;-60
2024/02/27 03:32:34;;;;;;;146.27;92.00;;;;;;;7.08;100.00;97114.28;5009274;28;20080;-60
2024/02/27 03:34:59;;;;;;;188.32;165.80;;;;;;;7.14;100.00;97110.81;5010924;28;20406;-61
2024/02/27 03:37:24;;;;;;;106.93;43.17;;;;;;;7.09;100.00;97123.75;5012035;28;20036;-61
2024/02/27 03:39:50;;;;;;;208.98;104.45;;;;;;;7.17;100.00;97113.41;5010556;28;20049;-60
2024/02/27 03:42:15;;;;;;;185.35;146.68;;;;;;;7.18;100.00;97120.28;5010188;28;20030;-62
2024/02/27 03:44:47;;;;;;;123.13;76.85;;;;;;;7.20;100.00;97128.03;5015560;28;20028;-60
2024/02/27 03:47:14;;;;;;;123.70;66.80;;;;;;;7.41;100.00;97130.53;5015047;28;20068;-60
2024/02/27 03:49:39;;;;;;;157.20;102.80;;;;;;;7.39;100.00;97134.84;5015656;28;20112;-59
2024/02/27 03:52:05;;;;;;;103.57;53.20;;;;;;;7.47;100.00;97140.00;5012602;28;20330;-62
2024/02/27 03:54:30;;;;;;;142.90;68.57;;;;;;;7.49;100.00;97148.59;5015506;28;20029;-60
2024/02/27 03:56:55;;;;;;;159.40;80.40;;;;;;;7.52;100.00;97152.91;5014436;28;20109;-61
2024/02/27 03:59:21;;;;;;;141.35;79.78;;;;;;;7.42;100.00;97160.72;5015603;28;20124;-61
2024/02/27 04:01:50;;;;;;;207.40;68.93;;;;;;;7.55;100.00;97171.00;5012147;28;20052;-62
2024/02/27 04:04:16;;;;;;;119.47;75.85;;;;;;;7.43;100.00;97182.28;5015327;28;20041;-58
2024/02/27 04:06:41;;;;;;;146.25;98.80;;;;;;;7.35;100.00;97171.94;5014174;28;20068;-61
2024/02/27 04:09:06;;;;;;;109.65;67.85;;;;;;;7.36;100.00;97176.25;5005445;28;20206;-63
2024/02/27 04:11:32;;;;;;;150.48;82.95;;;;;;;7.48;100.00;97177.06;5013664;28;20643;-58
2024/02/27 04:13:57;;;;;;;165.27;64.30;;;;;;;7.61;100.00;97183.06;5014908;28;20029;-61
2024/02/27 04:16:22;;;;;;;146.57;89.55;;;;;;;7.54;100.00;97184.81;5015393;28;20052;-59
2024/02/27 04:18:48;;;;;;;140.20;55.15;;;;;;;7.60;100.00;97181.31;5015167;28;20025;-59
2024/02/27 04:21:13;;;;;;;121.63;56.78;;;;;;;7.99;100.00;97188.91;5014843;28;20037;-61
2024/02/27 04:23:38;;;;;;;121.38;51.70;;;;;;;8.07;100.00;97188.00;5014271;28;20017;-61
2024/02/27 04:26:04;;;;;;;99.53;48.30;;;;;;;8.10;100.00;97192.31;5013646;28;20434;-61
2024/02/27 04:28:29;;;;;;;119.88;48.88;;;;;;;8.10;100.00;97202.66;5014779;28;20029;-62
2024/02/27 04:30:54;;;;;;;151.95;57.67;;;;;;;8.41;100.00;97201.56;5012779;28;20770;-59
2024/02/27 04:33:20;;;;;;;125.53;63.00;;;;;;;8.58;100.00;97204.94;5013740;28;20501;-61
2024/02/27 04:35:45;;;;;;;116.35;46.03;;;;;;;8.52;100.00;97209.25;5014252;28;20080;-59
2024/02/27 04:38:10;;;;;;;90.70;40.28;;;;;;;8.79;100.00;97218.59;5015029;28;20264;-62
2024/02/27 04:40:36;;;;;;;108.78;46.55;;;;;;;8.70;100.00;97210.91;5014514;28;20030;-62
2024/02/27 04:43:01;;;;;;;144.93;56.15;;;;;;;8.92;100.00;97214.16;5012921;28;20477;-62
2024/02/27 04:45:27;;;;;;;123.30;61.20;;;;;;;8.76;100.00;97220.34;5014674;28;20468;-60
2024/02/27 04:47:52;;;;;;;155.45;63.05;;;;;;;8.92;100.00;97221.94;5013289;28;20120;-61
2024/02/27 04:50:17;;;;;;;110.70;35.90;;;;;;;8.37;100.00;97221.47;5012857;28;20056;-63
2024/02/27 04:52:43;;;;;;;99.97;40.83;;;;;;;8.37;100.00;97234.44;5014520;28;20048;-60
2024/02/27 04:55:08;;;;;;;98.20;38.47;;;;;;;8.23;100.00;97215.53;5012561;28;20109;-61
2024/02/27 04:57:33;;;;;;;100.88;36.15;;;;;;;7.92;100.00;97225.19;5012841;28;20435;-61
2024/02/27 04:59:59;;;;;;;158.73;46.97;;;;;;;8.18;100.00;97225.91;5010709;28;20039;-60
2024/02/27 05:02:24;;;;;;;106.22;40.95;;;;;;;7.82;100.00;97241.63;5012465;28;20037;-62
2024/02/27 05:04:49;;;;;;;126.93;46.15;;;;;;;7.88;100.00;97235.56;5012287;28;20028;-61
2024/02/27 05:07:15;;;;;;;111.80;49.10;;;;;;;7.86;100.00;97245.06;5012489;28;20921;-62
2024/02/27 05:09:40;;;;;;;116.18;50.22;;;;;;;8.31;100.00;97243.09;5015584;28;20049;-62
2024/02/27 05:12:05;;;;;;;106.25;40.22;;;;;;;7.73;100.00;97242.53;5013395;28;20048;-63
2024/02/27 05:14:31;;;;;;;117.32;44.47;;;;;;;7.71;100.00;97246.84;5013378;28;20052;-59
2024/02/27 05:16:57;;;;;;;156.65;58.88;;;;;;;8.24;100.00;97232.78;5010864;28;20494;-60
2024/02/27 05:19:22;;;;;;;123.20;61.30;;;;;;;8.36;100.00;97230.13;5013250;28;20265;-63
2024/02/27 05:21:48;;;;;;;180.50;56.90;;;;;;;8.09;100.00;97247.53;5010869;28;20069;-64
2024/02/27 05:24:13;;;;;;;104.18;65.90;;;;;;;8.53;100.00;97242.13;5014507;28;20043;-61
2024/02/27 05:26:38;;;;;;;112.57;61.88;;;;;;;7.65;100.00;97252.06;5013489;28;20033;-64
2024/02/27 05:29:04;;;;;;;200.02;69.95;;;;;;;7.81;100.00;97247.69;5011909;28;20431;-62
2024/02/27 05:31:30;;;;;;;133.60;52.58;;;;;;;7.54;100.00;97252.09;5012564;28;20046;-63
2024/02/27 05:33:58;;;;;;;165.70;64.85;;;;;;;7.88;100.00;97251.09;5009919;28;20186;-61
2024/02/27 05:36:25;;;;;;;136.65;57.42;;;;;;;7.78;100.00;97255.44;5012420;28;20053;-60
2024/02/27 05:38:51;;;;;;;117.10;54.40;;;;;;;7.65;100.00;97254.66;5013078;28;20462;-61
2024/02/27 05:41:17;;;;;;;99.07;49.67;;;;;;;7.75;100.00;97258.03;5012409;28;20037;-63
2024/02/27 05:43:43;;;;;;;128.50;60.67;;;;;;;7.96;100.00;97264.88;5013679;28;20292;-61
2024/02/27 05:46:09;;;;;;;121.28;54.05;;;;;;;8.29;100.00;97256.94;5012644;28;20041;-60
2024/02/27 05:48:39;;;;;;;111.32;51.92;;;;;;;8.08;100.00;97266.53;5012334;28;20036;-61
2024/02/27 05:51:05;;;;;;;186.65;95.18;;;;;;;7.80;100.00;97267.53;5011322;28;20033;-59
2024/02/27 05:53:31;;;;;;;117.63;56.50;;;;;;;7.78;100.00;97265.81;5012293;28;20027;-60
2024/02/27 05:55:57;;;;;;;179.02;58.28;;;;;;;7.95;100.00;97264.00;5010896;28;20128;-59
2024/02/27 05:58:24;;;;;;;100.13;42.50;;;;;;;7.69;100.00;97270.16;5012975;28;20067;-59
2024/02/27 06:00:54;;;;;;;112.80;44.80;;;;;;;7.73;100.00;97268.44;5010644;28;20414;-60
2024/02/27 06:03:20;;;;;;;130.55;58.63;;;;;;;7.86;100.00;97269.22;5011381;28;20033;-61
2024/02/27 06:05:46;;;;;;;97.88;52.08;;;;;;;7.80;100.00;97272.69;5012173;28;20131;-60
2024/02/27 06:08:12;;;;;;;113.57;48.90;;;;;;;8.19;100.00;97269.94;5010791;28;20109;-59
2024/02/27 06:10:39;;;;;;;121.50;52.45;;;;;;;7.72;100.00;97287.41;5011777;28;20041;-60
2024/02/27 06:13:04;;;;;;;168.77;67.70;;;;;;;8.24;100.00;97288.03;5011035;28;20592;-60
2024/02/27 06:15:29;;;;;;;123.18;54.42;;;;;;;8.15;100.00;97296.72;5013151;28;20126;-61
2024/02/27 06:17:54;;;;;;;164.43;65.10;;;;;;;7.66;100.00;97306.41;5011349;28;20025;-62
2024/02/27 06:23:04;;;;;;;178.10;57.25;;;;;;;7.90;100.00;97320.13;5009818;28;20041;-60
2024/02/27 06:25:29;;;;;;;123.65;57.40;;;;;;;7.76;100.00;97327.09;5012085;28;20045;-59
2024/02/27 06:27:55;;;;;;;148.57;53.85;;;;;;;7.94;100.00;97337.38;5011459;28;20033;-61
2024/02/27 06:30:20;;;;;;;148.05;57.80;;;;;;;7.98;100.00;97337.38;5011214;28;20048;-60
2024/02/27 06:32:45;;;;;;;100.90;29.83;;;;;;;7.50;100.00;97346.13;5013651;28;20040;-61
2024/02/27 06:35:11;;;;;;;95.30;52.88;;;;;;;7.76;100.00;97343.47;5011616;28;20033;-61
2024/02/27 06:37:36;;;;;;;120.75;54.75;;;;;;;7.87;100.00;97351.19;5010264;28;20017;-60
2024/02/27 06:40:02;;;;;;;166.98;59.35;;;;;;;8.17;100.00;97358.91;5010262;28;20037;-58
2024/02/27 06:42:33;;;;;;;136.43;64.07;;;;;;;7.78;100.00;97359.00;5010736;28;20040;-58
2024/02/27 06:44:58;;;;;;;133.05;50.25;;;;;;;8.06;100.00;97364.13;5011044;28;20375;-63
2024/02/27 06:47:23;;;;;;;133.63;59.85;;;;;;;7.78;100.00;97367.63;5011828;28;20513;-60
2024/02/27 06:49:49;;;;;;;169.45;67.28;;;;;;;8.11;100.00;97374.44;5010214;28;20147;-61
2024/02/27 06:52:14;;;;;;;138.93;59.33;;;;;;;8.33;100.00;97377.81;5010186;28;20033;-60
2024/02/27 06:54:39;;;;;;;111.38;56.92;;;;;;;8.05;100.00;97381.38;5012523;28;20017;-60
2024/02/27 06:57:05;;;;;;;171.93;59.38;;;;;;;8.22;100.00;97388.22;5011195;28;20545;-61
2024/02/27 06:59:30;;;;;;;146.93;53.40;;;;;;;8.31;100.00;97388.19;5012308;28;20040;-59
2024/02/27 07:01:55;;;;;;;169.25;54.35;;;;;;;8.61;100.00;97395.84;5009589;28;20045;-58
2024/02/27 07:04:21;;;;;;;136.68;69.78;;;;;;;8.64;100.00;97398.44;5010957;28;20165;-61
2024/02/27 07:06:47;;;;;;;141.60;54.08;;;;;;;7.74;100.00;97404.75;5011805;28;20033;-61
2024/02/27 07:09:12;;;;;;;103.25;48.85;;;;;;;7.74;100.00;97406.47;5011481;28;20033;-62
2024/02/27 07:11:37;;;;;;;146.25;52.47;;;;;;;7.19;100.00;97413.41;5011127;28;20036;-59
2024/02/27 07:14:03;;;;;;;186.93;77.45;;;;;;;7.69;100.00;97411.66;5010911;28;20115;-59
2024/02/27 07:16:28;;;;;;;139.52;54.15;;;;;;;7.81;100.00;97409.06;5013039;28;20064;-59
2024/02/27 07:18:54;;;;;;;126.85;57.90;;;;;;;7.78;100.00;97418.53;5013700;28;20080;-59
2024/02/27 07:21:19;;;;;;;147.85;55.25;;;;;;;7.80;100.00;97422.84;5015592;28;20556;-58
2024/02/27 07:23:44;;;;;;;128.30;76.88;;;;;;;7.64;100.00;97424.59;5015543;28;20045;-60
2024/02/27 07:26:10;;;;;;;159.68;77.75;;;;;;;7.94;100.00;97427.13;5014499;28;20209;-58
2024/02/27 07:28:35;;;;;;;167.55;98.47;;;;;;;8.20;100.00;97423.63;5015233;28;20022;-58
2024/02/27 07:31:01;;;;;;;178.15;70.93;;;;;;;8.44;100.00;97424.44;5011924;28;20037;-62
2024/02/27 07:33:26;;;;;;;138.75;61.88;;;;;;;8.50;100.00;97426.97;5015471;28;20049;-60
2024/02/27 07:35:51;;;;;;;151.18;77.32;;;;;;;8.63;100.00;97425.25;5015081;28;20449;-60
2024/02/27 07:38:16;;;;;;;107.63;55.65;;;;;;;8.80;100.00;97426.91;5015195;28;20048;-61
2024/02/27 07:40:42;;;;;;;112.63;72.43;;;;;;;8.79;100.00;97430.34;5015493;28;20044;-62
2024/02/27 07:43:07;;;;;;;240.77;145.48;;;;;;;9.06;100.00;97437.09;5012327;28;20033;-61
2024/02/27 07:45:33;;;;;;;166.00;129.65;;;;;;;8.45;100.00;97427.00;5015601;28;20308;-59
2024/02/27 07:48:00;;;;;;;161.57;100.93;;;;;;;8.85;100.00;97426.00;5014318;28;20692;-61
2024/02/27 07:50:26;;;;;;;173.50;113.28;;;;;;;9.02;100.00;97421.56;5013582;28;20374;-61
2024/02/27 07:52:51;;;;;;;132.40;96.70;;;;;;;9.08;100.00;97426.72;5016182;28;20025;-61
2024/02/27 07:55:17;;;;;;;111.30;43.78;;;;;;;9.07;100.00;97427.59;5011960;28;20022;-59
2024/02/27 07:57:42;;;;;;;212.90;164.93;;;;;;;9.56;100.00;97421.19;5016131;28;20072;-59
2024/02/27 08:00:09;;;;;;;212.10;135.35;;;;;;;9.89;100.00;97410.50;5013993;28;20036;-60
2024/02/27 08:02:36;;;;;;;149.48;115.55;;;;;;;10.06;100.00;97412.06;5014082;28;20732;-61
2024/02/27 08:05:03;;;;;;;229.27;114.20;;;;;;;10.99;100.00;97404.88;5012356;28;20144;-56
2024/02/27 08:07:28;;;;;;;134.93;61.88;;;;;;;11.61;100.00;97398.69;5015017;28;20037;-57
2024/02/27 08:09:54;;;;;;;179.77;110.57;;;;;;;11.46;100.00;97400.69;5014674;28;20045;-59
2024/02/27 08:12:19;;;;;;;129.68;50.75;;;;;;;11.38;100.00;97399.94;5012547;28;20132;-60
2024/02/27 08:14:44;;;;;;;110.70;39.05;;;;;;;11.22;100.00;97394.13;5013761;28;20115;-57
2024/02/27 08:17:10;;;;;;;135.35;41.92;;;;;;;11.49;100.00;97397.16;5014321;28;20099;-58
2024/02/27 08:19:39;;;;;;;170.18;85.05;;;;;;;10.42;100.00;97392.59;5014658;28;20092;-59
2024/02/27 08:22:05;;;;;;;194.95;110.88;;;;;;;10.16;100.00;97398.09;5011679;28;20057;-61
2024/02/27 08:24:34;;;;;;;121.65;37.65;;;;;;;10.34;100.00;97381.44;5014689;28;20056;-61
2024/02/27 08:26:59;;;;;;;151.70;64.47;;;;;;;10.56;100.00;97378.59;5013661;28;20033;-60
2024/02/27 08:29:24;;;;;;;134.55;53.00;;;;;;;10.73;100.00;97367.94;5014745;28;20087;-59
2024/02/27 08:31:50;;;;;;;153.10;48.08;;;;;;;10.78;100.00;97367.88;5013383;28;20639;-60
2024/02/27 08:34:15;;;;;;;186.75;86.07;;;;;;;10.90;100.00;97365.09;5013911;28;20037;-58
2024/02/27 08:36:40;;;;;;;97.85;39.10;;;;;;;11.05;100.00;97355.34;5014540;28;20046;-60
2024/02/27 08:39:06;;;;;;;171.63;84.22;;;;;;;11.80;100.00;97357.56;5013551;28;20108;-59
2024/02/27 08:41:33;;;;;;;243.35;176.35;;;;;;;11.89;100.00;97359.16;5012562;28;20370;-60
2024/02/27 08:43:59;;;;;;;169.52;103.72;;;;;;;11.16;100.00;97348.25;5012998;28;20505;-61
2024/02/27 08:46:25;;;;;;;155.10;84.97;;;;;;;11.84;100.00;97356.63;5013828;28;20041;-60
2024/02/27 08:48:50;;;;;;;127.75;79.28;;;;;;;11.49;100.00;97359.84;5015074;28;20236;-59
2024/02/27 08:51:16;;;;;;;116.25;39.83;;;;;;;11.46;100.00;97363.38;5011103;28;20037;-58
2024/02/27 08:53:41;;;;;;;144.10;74.72;;;;;;;11.51;100.00;97353.72;5013962;28;20056;-58
2024/02/27 08:56:07;;;;;;;151.48;46.42;;;;;;;11.25;100.00;97365.44;5012498;28;20575;-58
2024/02/27 08:58:36;;;;;;;103.00;27.02;;;;;;;10.99;100.00;97369.31;5014323;28;20045;-59
2024/02/27 09:01:02;;;;;;;146.88;33.13;;;;;;;11.38;100.00;97360.91;5011373;28;20569;-58
2024/02/27 09:03:27;;;;;;;96.47;30.00;;;;;;;11.37;100.00;97363.53;5013715;28;20589;-58
2024/02/27 09:05:52;;;;;;;86.72;24.23;;;;;;;11.31;100.00;97357.53;5012794;28;20041;-58
2024/02/27 09:08:18;;;;;;;197.25;113.32;;;;;;;11.46;100.00;97351.22;5012723;28;20295;-58
2024/02/27 09:10:44;;;;;;;89.40;30.35;;;;;;;11.67;100.00;97349.13;5013108;28;20425;-60
2024/02/27 09:13:09;;;;;;;153.68;50.70;;;;;;;11.63;100.00;97362.22;5012466;28;20124;-60
2024/02/27 09:15:34;;;;;;;100.13;26.02;;;;;;;11.79;100.00;97348.03;5012478;28;21374;-60
2024/02/27 09:18:00;;;;;;;82.32;25.45;;;;;;;11.70;100.00;97351.66;5014041;28;20496;-59
2024/02/27 09:20:25;;;;;;;91.63;20.35;;;;;;;11.45;100.00;97351.25;5012867;28;20112;-58
2024/02/27 09:22:51;;;;;;;112.47;22.23;;;;;;;11.25;100.00;97349.81;5013173;28;20025;-58
2024/02/27 09:25:16;;;;;;;140.65;50.22;;;;;;;11.49;100.00;97355.50;5012403;28;20021;-58
2024/02/27 09:27:41;;;;;;;86.35;23.00;;;;;;;11.75;100.00;97356.78;5014682;28;20033;-61
2024/02/27 09:30:07;;;;;;;194.18;139.60;;;;;;;11.90;100.00;97358.25;5012212;28;20068;-58
2024/02/27 09:32:33;;;;;;;100.90;25.23;;;;;;;11.69;100.00;97359.53;5012949;28;20045;-59
2024/02/27 09:34:58;;;;;;;108.88;34.60;;;;;;;11.50;100.00;97365.03;5013658;28;20068;-59
2024/02/27 09:37:23;;;;;;;106.30;21.95;;;;;;;11.64;100.00;97362.19;5010753;28;20029;-59
2024/02/27 09:39:49;;;;;;;130.77;23.92;;;;;;;11.99;100.00;97370.22;5013353;28;20103;-58
2024/02/27 09:42:14;;;;;;;127.05;28.08;;;;;;;11.97;100.00;97365.06;5009414;28;20051;-59
2024/02/27 09:44:52;;;;;;;108.10;25.10;;;;;;;12.10;100.00;97368.31;5012884;28;20156;-58
2024/02/27 09:47:18;;;;;;;130.40;31.08;;;;;;;12.25;100.00;97366.28;5008807;28;20823;-60
2024/02/27 09:49:45;;;;;;;112.55;30.85;;;;;;;12.43;100.00;97367.66;5012736;28;20041;-59
2024/02/27 09:52:21;;;;;;;126.22;20.58;;;;;;;11.68;100.00;97365.59;5010511;28;20389;-59
2024/02/27 09:54:48;;;;;;;124.25;68.45;;;;;;;12.00;100.00;97373.72;5012816;28;20032;-59
2024/02/27 09:57:13;;;;;;;148.25;34.08;;;;;;;11.77;100.00;97373.25;5011521;28;20517;-60
2024/02/27 09:59:40;;;;;;;107.45;40.97;;;;;;;11.63;100.00;97383.94;5011788;28;20039;-58
2024/02/27 10:02:13;;;;;;;105.95;35.60;;;;;;;10.25;100.00;97382.38;5010609;28;20145;-60
2024/02/27 10:04:40;;;;;;;122.53;77.18;;;;;;;10.03;100.00;97385.22;5013903;28;20445;-60
2024/02/27 10:07:07;;;;;;;202.90;155.38;;;;;;;9.46;100.00;97398.75;5012270;28;20041;-61
2024/02/27 10:09:35;;;;;;;192.50;127.35;;;;;;;9.42;100.00;97390.13;5013060;28;20508;-61
2024/02/27 10:12:04;;;;;;;165.35;106.50;;;;;;;9.44;100.00;97395.31;5011829;28;20059;-60
2024/02/27 10:14:37;;;;;;;138.38;70.90;;;;;;;9.51;100.00;97395.25;5013765;28;20032;-58
2024/02/27 10:17:04;;;;;;;165.18;85.32;;;;;;;9.65;100.00;97391.66;5011894;28;20041;-57
2024/02/27 10:19:30;;;;;;;101.20;22.30;;;;;;;9.71;100.00;97382.97;5002368;28;20353;-59
2024/02/27 10:21:56;;;;;;;117.57;30.20;;;;;;;9.88;100.00;97391.44;5011025;28;20052;-60
2024/02/27 10:24:24;;;;;;;163.23;37.15;;;;;;;9.89;100.00;97384.53;5011615;28;20277;-60
2024/02/27 10:26:54;;;;;;;108.20;31.92;;;;;;;9.91;100.00;97387.94;5012031;28;20120;-59
2024/02/27 10:29:24;;;;;;;162.93;41.75;;;;;;;9.89;100.00;97392.31;5011441;28;20043;-59
2024/02/27 10:31:50;;;;;;;142.60;56.45;;;;;;;10.31;100.00;97393.59;5011518;28;20124;-59
2024/02/27 10:34:16;;;;;;;135.50;69.53;;;;;;;10.67;100.00;97388.84;5011405;28;20511;-62
2024/02/27 10:36:41;;;;;;;100.72;18.40;;;;;;;10.86;100.00;97386.84;5010484;28;20527;-58
2024/02/27 10:39:10;;;;;;;74.32;15.13;;;;;;;11.15;100.00;97389.91;5011245;28;20706;-59
2024/02/27 10:41:40;;;;;;;116.80;60.92;;;;;;;10.84;100.00;97401.59;5010038;28;20510;-58
2024/02/27 10:44:08;;;;;;;82.80;17.73;;;;;;;10.84;100.00;97398.16;5011326;28;20041;-58
2024/02/27 10:46:36;;;;;;;114.65;30.33;;;;;;;11.15;100.00;97400.31;5011847;28;20573;-58
2024/02/27 10:49:04;;;;;;;104.88;16.48;;;;;;;11.16;100.00;97407.22;5012181;28;20417;-60
2024/02/27 10:51:30;;;;;;;107.78;18.90;;;;;;;10.93;100.00;97391.09;5008278;28;20095;-59
2024/02/27 10:53:57;;;;;;;84.43;15.52;;;;;;;11.42;100.00;97396.41;5011202;28;20033;-60
2024/02/27 10:56:23;;;;;;;151.85;18.35;;;;;;;11.75;100.00;97395.88;5009928;28;20124;-58
2024/02/27 10:58:51;;;;;;;81.45;14.55;;;;;;;11.75;100.00;97401.06;5011418;28;20033;-61
2024/02/27 11:01:17;;;;;;;113.97;16.30;;;;;;;11.72;100.00;97391.56;5008623;28;20041;-59
2024/02/27 11:03:47;;;;;;;114.05;27.80;;;;;;;11.92;100.00;97397.31;5011208;28;20029;-60